Torreón, COA, Mexico
Current Conditions -  °F | °C
As of 6:41 AM on Thursday 18 Dec 2014 (Local Time) from MMTC Reporting Station
Broken Clouds Broken Clouds  
Wind Chill: 50°   Ceiling: 20000
Heat Index: 50°   Visibility: 7mi
Dew Point: 39°   Wind: 0mph
Humidity: 66%   Direction: NA
Pressure: 30.12"   Gusts: NA
Location:  25.54445°N, 103.4417°W
Report Text: MMTC 181241Z 00000KT 7SM FEW090 BKN200 10/04 A3012 RMK 8/052 HZY
Loading
Personal Weather Stations






























Interactive Weather Map New forecast layout! Learn more

10-Day Weather Forecast

Advertisements
Track Severe Weather on mobile